Laura Ann — V2AR8 — position and weather

sailwx.info

Track history (hours):
 
Tides and Currents Weather Stations Pressure Air Temp Water Temp Dewpoint Dewpoint Depression Visibility Wind Speed Wind Dir Waves Ship Positions

Laura Ann

Last reported at 2018-Jun-20 05:29 UTC. Time now 2018-Jun-20 05:47 UTC.
Position N 46°09' W 001°13'.

Length 134 m; draft 8.5 m.

Type: Ship. MMSI: 305594370.

Date/timePositionNaut miles runAvg speedWind from/ knotsBaromVisibWave heightAir tempDewpointWater temp
2018-Jun-20 05:29N 46°09' W 001°13'0 0.0
2018-Jun-20 04:59N 46°09' W 001°13'0 0.0
2018-Jun-20 04:29N 46°09' W 001°13'0 0.0
2018-Jun-20 03:59N 46°09' W 001°13'0 0.0
2018-Jun-20 03:29N 46°09' W 001°13'0 0.0
2018-Jun-20 02:59N 46°09' W 001°13'0 0.0
2018-Jun-20 02:29N 46°09' W 001°13'0 0.0
2018-Jun-20 01:59N 46°09' W 001°13'0 0.0
2018-Jun-20 01:29N 46°09' W 001°13'0 0.0
2018-Jun-20 00:59N 46°09' W 001°13'0 0.1
2018-Jun-20 00:30N 46°09' W 001°14'2 3.2
2018-Jun-20 00:00N 46°08' W 001°15'5 9.0
2018-Jun-19 23:29N 46°06' W 001°21'611.5
2018-Jun-19 23:00N 46°07' W 001°29'611.5
2018-Jun-19 22:30N 46°07' W 001°37'611.6
2018-Jun-19 21:59N 46°10' W 001°45'611.9
2018-Jun-19 21:30N 46°13' W 001°52'612.1
2018-Jun-19 21:00N 46°17' W 001°59'612.7
2018-Jun-19 20:30N 46°21' W 002°06'712.9
2018-Jun-19 20:00N 46°25' W 002°13'612.7
2018-Jun-19 19:30N 46°29' W 002°21'613.0
2018-Jun-19 19:00N 46°33' W 002°28'712.9
2018-Jun-19 18:27N 46°37' W 002°36'613.0
2018-Jun-19 17:58N 46°41' W 002°44'613.2
2018-Jun-19 17:30N 46°45' W 002°51'713.1
2018-Jun-19 16:59N 46°49' W 002°59'613.0
2018-Jun-19 16:30N 46°53' W 003°06'612.9
2018-Jun-19 16:00N 46°57' W 003°13'612.9
2018-Jun-19 15:30N 47°01' W 003°20'612.8
2018-Jun-19 15:00N 47°05' W 003°27'612.8
2018-Jun-19 14:30N 47°09' W 003°34'914.5
2018-Jun-19 13:53N 47°15' W 003°45'512.6
2018-Jun-19 13:30N 47°17' W 003°51'712.5
2018-Jun-19 12:59N 47°20' W 003°60'3812.9
2018-Jun-19 10:02N 47°42' W 004°46'013.0
2018-Jun-19 10:00N 47°42' W 004°46'713.4
2018-Jun-19 09:30N 47°47' W 004°54'2313.0
2018-Jun-19 07:43N 48°01' W 005°21'5411.3
2018-Jun-19 02:56N 48°52' W 005°47'613.1
2018-Jun-19 02:30N 48°56' W 005°40'714.3
2018-Jun-19 02:00N 48°59' W 005°31'7912.3
2018-Jun-18 19:35N 49°39' W 003°46'211.8
2018-Jun-18 19:27N 49°39' W 003°44'912.3
2018-Jun-18 18:44N 49°44' W 003°32'413.0
2018-Jun-18 18:27N 49°46' W 003°27'613.4
2018-Jun-18 18:00N 49°49' W 003°19'713.9
2018-Jun-18 17:30N 49°53' W 003°10'714.1
2018-Jun-18 17:00N 49°56' W 003°00'814.5
2018-Jun-18 16:29N 49°59' W 002°49'714.5
2018-Jun-18 16:00N 50°01' W 002°39'814.1
2018-Jun-18 15:28N 50°02' W 002°27'2014.6
2018-Jun-18 14:03N 49°58' W 001°56'113.4
2018-Jun-18 13:57N 49°57' W 001°54'613.4
2018-Jun-18 13:29N 49°55' W 001°45'711.2
2018-Jun-18 12:54N 49°53' W 001°35'510.3
2018-Jun-18 12:25N 49°52' W 001°28'410.0
2018-Jun-18 12:00N 49°50' W 001°22'5 9.2
2018-Jun-18 11:30N 49°49' W 001°15'4 8.6
2018-Jun-18 11:01N 49°47' W 001°09'5 8.9
2018-Jun-18 10:29N 49°45' W 001°02'5 9.7
2018-Jun-18 10:01N 49°44' W 000°56'510.3
2018-Jun-18 09:30N 49°42' W 000°48'611.2
2018-Jun-18 08:58N 49°40' W 000°40'612.2
2018-Jun-18 08:31N 49°38' W 000°32'713.0
2018-Jun-18 08:00N 49°35' W 000°22'713.3
2018-Jun-18 07:31N 49°33' W 000°13'713.5
2018-Jun-18 07:00N 49°30' W 000°03'611.5
2018-Jun-18 06:30N 49°29' E 000°05'3 6.5
2018-Jun-18 06:01N 49°27' E 000°10'0 0.0
2018-Jun-18 05:30N 49°27' E 000°10'0 0.0
2018-Jun-18 05:00N 49°27' E 000°10'0 0.0
2018-Jun-18 04:30N 49°27' E 000°10'0 0.0
2018-Jun-18 04:00N 49°27' E 000°10'0 0.0
2018-Jun-18 03:30N 49°27' E 000°10'0 0.0
2018-Jun-18 03:00N 49°27' E 000°10'0 0.0
2018-Jun-18 02:30N 49°27' E 000°10'0 0.0
2018-Jun-18 02:00N 49°27' E 000°10'0 0.0
2018-Jun-18 01:30N 49°27' E 000°10'0 0.0
2018-Jun-18 01:00N 49°27' E 000°10'0 0.0
2018-Jun-18 00:30N 49°27' E 000°10'0 0.0
2018-Jun-18 00:00N 49°27' E 000°10'0 0.0
2018-Jun-17 23:30N 49°27' E 000°10'0 0.0
2018-Jun-17 23:00N 49°27' E 000°10'0 0.0
2018-Jun-17 22:30N 49°27' E 000°10'0 0.0
2018-Jun-17 22:00N 49°27' E 000°10'0 0.0
2018-Jun-17 21:30N 49°27' E 000°10'0 0.0
2018-Jun-17 21:00N 49°27' E 000°10'0 0.0
2018-Jun-17 20:30N 49°27' E 000°10'0 0.0
2018-Jun-17 20:00N 49°27' E 000°10'0 0.0
2018-Jun-17 19:30N 49°27' E 000°10'0 0.5
2018-Jun-17 19:00N 49°27' E 000°10'4 7.4
2018-Jun-17 18:30N 49°29' E 000°05'3 6.2
2018-Jun-17 18:00N 49°28' E 000°09'0 0.0
2018-Jun-17 17:29N 49°28' E 000°09'0 0.0
2018-Jun-17 16:59N 49°28' E 000°09'0 0.0
2018-Jun-17 16:29N 49°28' E 000°09'0 0.0
2018-Jun-17 15:59N 49°28' E 000°09'0 0.0
2018-Jun-17 15:29N 49°28' E 000°09'0 0.0
2018-Jun-17 14:59N 49°28' E 000°09'0 0.0
2018-Jun-17 14:29N 49°28' E 000°09'0 0.0
2018-Jun-17 13:59N 49°28' E 000°09'0 0.0
2018-Jun-17 13:29N 49°28' E 000°09'0 0.0
2018-Jun-17 12:59N 49°28' E 000°09'0 0.0
2018-Jun-17 12:29N 49°28' E 000°09'0 0.0
2018-Jun-17 11:59N 49°28' E 000°09'0 0.0
2018-Jun-17 11:29N 49°28' E 000°09'0 0.0
2018-Jun-17 11:00N 49°28' E 000°09'1 2.5
2018-Jun-17 10:30N 49°28' E 000°07'714.2
2018-Jun-17 10:00N 49°31' W 000°03'713.6
2018-Jun-17 09:31N 49°33' W 000°13'611.5
2018-Jun-17 09:00N 49°35' W 000°21'612.6
2018-Jun-17 08:30N 49°37' W 000°30'713.2
2018-Jun-17 08:00N 49°40' W 000°40'713.2
2018-Jun-17 07:30N 49°42' W 000°49'713.2
2018-Jun-17 07:00N 49°44' W 000°59'816.1
2018-Jun-17 06:30N 49°47' W 001°11'1214.4
2018-Jun-17 05:40N 49°50' W 001°28'313.9
2018-Jun-17 05:29N 49°50' W 001°33'713.8
2018-Jun-17 04:59N 49°51' W 001°43'713.0
2018-Jun-17 04:29N 49°51' W 001°53'612.5
2018-Jun-17 03:58N 49°51' W 002°03'813.0
2018-Jun-17 03:23N 49°52' W 002°15'613.7
2018-Jun-17 02:55N 49°52' W 002°25'914.2
2018-Jun-17 02:18N 49°50' W 002°38'514.5
2018-Jun-17 01:59N 49°48' W 002°45'1014.7
2018-Jun-17 01:20N 49°45' W 002°59'614.1
2018-Jun-17 00:56N 49°42' W 003°06'714.1
2018-Jun-17 00:24N 49°38' W 003°16'614.3
2018-Jun-17 00:00N 49°35' W 003°24'914.4
2018-Jun-16 23:21N 49°31' W 003°36'3913.6
2018-Jun-16 20:30N 49°10' W 004°26'713.9
2018-Jun-16 20:00N 49°06' W 004°36'714.1
2018-Jun-16 19:30N 49°03' W 004°45'914.1
2018-Jun-16 18:52N 48°59' W 004°57'514.3
2018-Jun-16 18:29N 48°57' W 005°05'914.5
2018-Jun-16 17:52N 48°52' W 005°17'614.7
2018-Jun-16 17:28N 48°49' W 005°25'3911.7
2018-Jun-16 14:07N 48°10' W 005°22'114.5
2018-Jun-16 14:01N 48°09' W 005°21'714.2
2018-Jun-16 13:30N 48°03' W 005°15'813.2
2018-Jun-16 12:55N 47°57' W 005°07'614.4
2018-Jun-16 12:31N 47°54' W 004°60'815.1
2018-Jun-16 12:01N 47°50' W 004°50'3414.3
2018-Jun-16 09:37N 47°31' W 004°08'314.4
2018-Jun-16 09:23N 47°29' W 004°04'614.4
2018-Jun-16 08:59N 47°26' W 003°57'714.6
2018-Jun-16 08:31N 47°22' W 003°48'714.6
2018-Jun-16 08:00N 47°19' W 003°39'714.3
2018-Jun-16 07:31N 47°15' W 003°30'714.3
2018-Jun-16 07:01N 47°11' W 003°21'713.8
2018-Jun-16 06:30N 47°09' W 003°11'714.0
2018-Jun-16 06:01N 47°06' W 003°02'714.1
2018-Jun-16 05:29N 47°04' W 002°52'714.0
2018-Jun-16 05:00N 47°01' W 002°42'613.3
2018-Jun-16 04:30N 47°03' W 002°33'612.9
2018-Jun-16 04:00N 47°06' W 002°25'611.5
2018-Jun-16 03:31N 47°10' W 002°19'612.4
2018-Jun-16 03:01N 47°15' W 002°14'4 8.8
2018-Jun-16 02:31N 47°18' W 002°09'0 0.7
2018-Jun-16 02:00N 47°18' W 002°09'0 0.0
2018-Jun-16 01:30N 47°18' W 002°09'0 0.0
2018-Jun-16 01:00N 47°18' W 002°09'0 0.0
2018-Jun-16 00:30N 47°18' W 002°09'0 0.0
2018-Jun-16 00:00N 47°18' W 002°09'0 0.0
2018-Jun-15 23:30N 47°18' W 002°09'0 0.0
2018-Jun-15 23:00N 47°18' W 002°09'0 0.0
2018-Jun-15 22:30N 47°18' W 002°09'0 0.0
2018-Jun-15 22:00N 47°18' W 002°09'0 0.0
2018-Jun-15 21:30N 47°18' W 002°09'0 0.0
2018-Jun-15 21:00N 47°18' W 002°09'0 0.0
2018-Jun-15 20:30N 47°18' W 002°09'0 0.0
2018-Jun-15 20:00N 47°18' W 002°09'0 0.0
2018-Jun-15 19:30N 47°18' W 002°09'0 0.0
2018-Jun-15 19:00N 47°18' W 002°09'0 0.0
2018-Jun-15 18:30N 47°18' W 002°09'0 0.1
2018-Jun-15 18:00N 47°18' W 002°09'5 9.7
2018-Jun-15 17:29N 47°14' W 002°15'713.6
2018-Jun-15 17:00N 47°09' W 002°20'3710.3
2018-Jun-15 13:24N 46°31' W 002°22'514.1
2018-Jun-15 13:01N 46°27' W 002°17'714.1
2018-Jun-15 12:31N 46°22' W 002°11'714.5
2018-Jun-15 12:00N 46°16' W 002°05'714.5
2018-Jun-15 11:31N 46°10' W 001°58'714.7
2018-Jun-15 11:00N 46°04' W 001°52'714.8
2018-Jun-15 10:31N 45°58' W 001°46'714.6
2018-Jun-15 10:01N 45°52' W 001°41'1615.0
2018-Jun-15 08:56N 45°39' W 001°27'512.0
2018-Jun-15 08:30N 45°37' W 001°20'816.5
2018-Jun-15 08:00N 45°39' W 001°08'815.3
2018-Jun-15 07:30N 45°33' W 001°01'917.2
2018-Jun-15 07:00N 45°26' W 000°53'714.9
2018-Jun-15 06:30N 45°20' W 000°47'19 0.4
2018-Jun-13 05:12N 45°02' W 000°37'617.2
2018-Jun-13 04:49N 45°08' W 000°42'817.0
2018-Jun-13 04:21N 45°15' W 000°45'616.8
2018-Jun-13 04:00N 45°21' W 000°48'816.8
2018-Jun-13 03:30N 45°28' W 000°55'917.8
2018-Jun-13 03:00N 45°35' W 001°03'815.5
2018-Jun-13 02:30N 45°39' W 001°11'917.6
2018-Jun-13 01:59N 45°36' W 001°23'3418.1
2018-Jun-13 00:05N 46°01' W 001°57'4317.9
2018-Jun-12 21:39N 46°31' W 002°43'517.5
2018-Jun-12 21:22N 46°34' W 002°49'917.4
2018-Jun-12 20:50N 46°39' W 003°00'817.4
2018-Jun-12 20:24N 46°44' W 003°09'717.4
2018-Jun-12 20:01N 46°48' W 003°16'1217.5
2018-Jun-12 19:18N 46°56' W 003°31'2317.7
2018-Jun-12 18:00N 47°11' W 003°56'4417.3
2018-Jun-12 15:27N 47°40' W 004°45'818.3
2018-Jun-12 15:00N 47°46' W 004°54'12411.2
2018-Jun-12 03:52N 49°41' W 003°42'616.5
2018-Jun-12 03:30N 49°44' W 003°34'816.9
2018-Jun-12 03:00N 49°48' W 003°23'917.6
2018-Jun-12 02:30N 49°52' W 003°11'918.2
2018-Jun-12 02:00N 49°56' W 002°58'918.6
2018-Jun-12 01:30N 49°60' W 002°45'1019.4
2018-Jun-12 01:00N 50°02' W 002°30'1019.4
2018-Jun-12 00:30N 50°01' W 002°15'1020.1
2018-Jun-12 00:00N 49°58' W 002°00'1020.9
2018-Jun-11 23:30N 49°55' W 001°44'1020.9
2018-Jun-11 23:00N 49°52' W 001°29'1020.7
2018-Jun-11 22:30N 49°49' W 001°13'1019.4
2018-Jun-11 22:00N 49°46' W 000°59'918.1
2018-Jun-11 21:30N 49°41' W 000°47'917.6
2018-Jun-11 21:00N 49°38' W 000°35'917.0
2018-Jun-11 20:30N 49°35' W 000°22'816.6
2018-Jun-11 20:01N 49°32' W 000°10'714.4
2018-Jun-11 19:30N 49°30' E 000°00'713.1
2018-Jun-11 19:00N 49°27' E 000°10'0 0.4
2018-Jun-11 18:30N 49°27' E 000°10'0 0.0
2018-Jun-11 18:00N 49°27' E 000°10'0 0.0
2018-Jun-11 17:30N 49°27' E 000°10'0 0.0
2018-Jun-11 17:00N 49°27' E 000°10'0 0.0
2018-Jun-11 16:30N 49°27' E 000°10'0 0.0
2018-Jun-11 16:00N 49°27' E 000°10'0 0.0
2018-Jun-11 15:30N 49°27' E 000°10'0 0.0
2018-Jun-11 15:00N 49°27' E 000°10'0 0.0
2018-Jun-11 14:30N 49°27' E 000°10'0 0.0
2018-Jun-11 14:00N 49°27' E 000°10'0 0.0
2018-Jun-11 13:30N 49°27' E 000°10'0 0.0
2018-Jun-11 13:00N 49°27' E 000°10'0 0.0
2018-Jun-11 12:30N 49°27' E 000°10'0 0.0
2018-Jun-11 12:00N 49°27' E 000°10'0 0.0
2018-Jun-11 11:30N 49°27' E 000°10'0 0.0
2018-Jun-11 11:00N 49°27' E 000°10'0 0.0
2018-Jun-11 10:30N 49°27' E 000°10'0 0.0
2018-Jun-11 10:00N 49°27' E 000°10'0 0.0
2018-Jun-11 09:30N 49°27' E 000°10'0 0.0
2018-Jun-11 09:00N 49°27' E 000°10'0 0.0
2018-Jun-11 08:30N 49°27' E 000°10'0 0.0
2018-Jun-11 08:00N 49°27' E 000°10'0 0.0
2018-Jun-11 07:30N 49°27' E 000°10'0 0.0
2018-Jun-11 07:00N 49°27' E 000°10'0 0.0
2018-Jun-11 06:30N 49°27' E 000°10'0 0.0
2018-Jun-11 06:00N 49°27' E 000°10'0 0.0
2018-Jun-11 05:30N 49°27' E 000°10'0 0.0
2018-Jun-11 05:00N 49°27' E 000°10'4 7.0
2018-Jun-11 04:31N 49°29' E 000°05'3 5.6
2018-Jun-11 04:01N 49°28' E 000°09'0 0.0
2018-Jun-11 03:29N 49°28' E 000°09'0 0.0
2018-Jun-11 02:59N 49°28' E 000°09'0 0.0
2018-Jun-11 02:29N 49°28' E 000°09'0 0.0
2018-Jun-11 01:59N 49°28' E 000°09'0 0.0
2018-Jun-11 01:29N 49°28' E 000°09'0 0.0
2018-Jun-11 00:59N 49°28' E 000°09'0 0.0
2018-Jun-11 00:29N 49°28' E 000°09'0 0.0
2018-Jun-10 23:59N 49°28' E 000°09'0 0.0
2018-Jun-10 23:29N 49°28' E 000°09'0 0.0
2018-Jun-10 22:59N 49°28' E 000°09'0 0.0
2018-Jun-10 22:29N 49°28' E 000°09'0 0.0
2018-Jun-10 21:59N 49°28' E 000°09'1 2.5
2018-Jun-10 21:30N 49°28' E 000°07'714.2
2018-Jun-10 21:00N 49°30' W 000°03'714.9
2018-Jun-10 20:30N 49°33' W 000°14'816.2
2018-Jun-10 20:00N 49°36' W 000°26'816.7
2018-Jun-10 19:30N 49°39' W 000°38'917.3
2018-Jun-10 19:00N 49°42' W 000°50'917.8
2018-Jun-10 18:30N 49°45' W 001°03'1019.5
2018-Jun-10 18:00N 49°48' W 001°17'1019.4
2018-Jun-10 17:30N 49°50' W 001°32'1020.2
2018-Jun-10 17:01N 49°51' W 001°47'1020.3
2018-Jun-10 16:30N 49°52' W 002°03'2218.4
2018-Jun-10 15:17N 49°51' W 002°38'517.9
2018-Jun-10 15:00N 49°50' W 002°46'10216.4
2018-Jun-10 08:49N 49°01' W 005°02'  
Track history (hours):
 
Tides and Currents Weather Stations Pressure Air Temp Water Temp Dewpoint Dewpoint Depression Visibility Wind Speed Wind Dir Waves Ship Positions

Laura Ann

Last reported at 2018-Jun-20 05:29 UTC. Time now 2018-Jun-20 05:47 UTC.
Position N 46°09' W 001°13'.

Length 134 m; draft 8.5 m.

Type: Ship. MMSI: 305594370.

Date/timePositionNaut miles runAvg speedWind from/ knotsBaromVisibWave heightAir tempDewpointWater temp
2018-Jun-20 05:29N 46°09' W 001°13'0 0.0
2018-Jun-20 04:59N 46°09' W 001°13'0 0.0
2018-Jun-20 04:29N 46°09' W 001°13'0 0.0
2018-Jun-20 03:59N 46°09' W 001°13'0 0.0
2018-Jun-20 03:29N 46°09' W 001°13'0 0.0
2018-Jun-20 02:59N 46°09' W 001°13'0 0.0
2018-Jun-20 02:29N 46°09' W 001°13'0 0.0
2018-Jun-20 01:59N 46°09' W 001°13'0 0.0
2018-Jun-20 01:29N 46°09' W 001°13'0 0.0
2018-Jun-20 00:59N 46°09' W 001°13'0 0.1
2018-Jun-20 00:30N 46°09' W 001°14'2 3.2
2018-Jun-20 00:00N 46°08' W 001°15'5 9.0
2018-Jun-19 23:29N 46°06' W 001°21'611.5
2018-Jun-19 23:00N 46°07' W 001°29'611.5
2018-Jun-19 22:30N 46°07' W 001°37'611.6
2018-Jun-19 21:59N 46°10' W 001°45'611.9
2018-Jun-19 21:30N 46°13' W 001°52'612.1
2018-Jun-19 21:00N 46°17' W 001°59'612.7
2018-Jun-19 20:30N 46°21' W 002°06'712.9
2018-Jun-19 20:00N 46°25' W 002°13'612.7
2018-Jun-19 19:30N 46°29' W 002°21'613.0
2018-Jun-19 19:00N 46°33' W 002°28'712.9
2018-Jun-19 18:27N 46°37' W 002°36'613.0
2018-Jun-19 17:58N 46°41' W 002°44'613.2
2018-Jun-19 17:30N 46°45' W 002°51'713.1
2018-Jun-19 16:59N 46°49' W 002°59'613.0
2018-Jun-19 16:30N 46°53' W 003°06'612.9
2018-Jun-19 16:00N 46°57' W 003°13'612.9
2018-Jun-19 15:30N 47°01' W 003°20'612.8
2018-Jun-19 15:00N 47°05' W 003°27'612.8
2018-Jun-19 14:30N 47°09' W 003°34'914.5
2018-Jun-19 13:53N 47°15' W 003°45'512.6
2018-Jun-19 13:30N 47°17' W 003°51'712.5
2018-Jun-19 12:59N 47°20' W 003°60'3812.9
2018-Jun-19 10:02N 47°42' W 004°46'013.0
2018-Jun-19 10:00N 47°42' W 004°46'713.4
2018-Jun-19 09:30N 47°47' W 004°54'2313.0
2018-Jun-19 07:43N 48°01' W 005°21'5411.3
2018-Jun-19 02:56N 48°52' W 005°47'613.1
2018-Jun-19 02:30N 48°56' W 005°40'714.3
2018-Jun-19 02:00N 48°59' W 005°31'7912.3
2018-Jun-18 19:35N 49°39' W 003°46'211.8
2018-Jun-18 19:27N 49°39' W 003°44'912.3
2018-Jun-18 18:44N 49°44' W 003°32'413.0
2018-Jun-18 18:27N 49°46' W 003°27'613.4
2018-Jun-18 18:00N 49°49' W 003°19'713.9
2018-Jun-18 17:30N 49°53' W 003°10'714.1
2018-Jun-18 17:00N 49°56' W 003°00'814.5
2018-Jun-18 16:29N 49°59' W 002°49'714.5
2018-Jun-18 16:00N 50°01' W 002°39'814.1
2018-Jun-18 15:28N 50°02' W 002°27'2014.6
2018-Jun-18 14:03N 49°58' W 001°56'113.4
2018-Jun-18 13:57N 49°57' W 001°54'613.4
2018-Jun-18 13:29N 49°55' W 001°45'711.2
2018-Jun-18 12:54N 49°53' W 001°35'510.3
2018-Jun-18 12:25N 49°52' W 001°28'410.0
2018-Jun-18 12:00N 49°50' W 001°22'5 9.2
2018-Jun-18 11:30N 49°49' W 001°15'4 8.6
2018-Jun-18 11:01N 49°47' W 001°09'5 8.9
2018-Jun-18 10:29N 49°45' W 001°02'5 9.7
2018-Jun-18 10:01N 49°44' W 000°56'510.3
2018-Jun-18 09:30N 49°42' W 000°48'611.2
2018-Jun-18 08:58N 49°40' W 000°40'612.2
2018-Jun-18 08:31N 49°38' W 000°32'713.0
2018-Jun-18 08:00N 49°35' W 000°22'713.3
2018-Jun-18 07:31N 49°33' W 000°13'713.5
2018-Jun-18 07:00N 49°30' W 000°03'611.5
2018-Jun-18 06:30N 49°29' E 000°05'3 6.5
2018-Jun-18 06:01N 49°27' E 000°10'0 0.0
2018-Jun-18 05:30N 49°27' E 000°10'0 0.0
2018-Jun-18 05:00N 49°27' E 000°10'0 0.0
2018-Jun-18 04:30N 49°27' E 000°10'0 0.0
2018-Jun-18 04:00N 49°27' E 000°10'0 0.0
2018-Jun-18 03:30N 49°27' E 000°10'0 0.0
2018-Jun-18 03:00N 49°27' E 000°10'0 0.0
2018-Jun-18 02:30N 49°27' E 000°10'0 0.0
2018-Jun-18 02:00N 49°27' E 000°10'0 0.0
2018-Jun-18 01:30N 49°27' E 000°10'0 0.0
2018-Jun-18 01:00N 49°27' E 000°10'0 0.0
2018-Jun-18 00:30N 49°27' E 000°10'0 0.0
2018-Jun-18 00:00N 49°27' E 000°10'0 0.0
2018-Jun-17 23:30N 49°27' E 000°10'0 0.0
2018-Jun-17 23:00N 49°27' E 000°10'0 0.0
2018-Jun-17 22:30N 49°27' E 000°10'0 0.0
2018-Jun-17 22:00N 49°27' E 000°10'0 0.0
2018-Jun-17 21:30N 49°27' E 000°10'0 0.0
2018-Jun-17 21:00N 49°27' E 000°10'0 0.0
2018-Jun-17 20:30N 49°27' E 000°10'0 0.0
2018-Jun-17 20:00N 49°27' E 000°10'0 0.0
2018-Jun-17 19:30N 49°27' E 000°10'0 0.5
2018-Jun-17 19:00N 49°27' E 000°10'4 7.4
2018-Jun-17 18:30N 49°29' E 000°05'3 6.2
2018-Jun-17 18:00N 49°28' E 000°09'0 0.0
2018-Jun-17 17:29N 49°28' E 000°09'0 0.0
2018-Jun-17 16:59N 49°28' E 000°09'0 0.0
2018-Jun-17 16:29N 49°28' E 000°09'0 0.0
2018-Jun-17 15:59N 49°28' E 000°09'0 0.0
2018-Jun-17 15:29N 49°28' E 000°09'0 0.0
2018-Jun-17 14:59N 49°28' E 000°09'0 0.0
2018-Jun-17 14:29N 49°28' E 000°09'0 0.0
2018-Jun-17 13:59N 49°28' E 000°09'0 0.0
2018-Jun-17 13:29N 49°28' E 000°09'0 0.0
2018-Jun-17 12:59N 49°28' E 000°09'0 0.0
2018-Jun-17 12:29N 49°28' E 000°09'0 0.0
2018-Jun-17 11:59N 49°28' E 000°09'0 0.0
2018-Jun-17 11:29N 49°28' E 000°09'0 0.0
2018-Jun-17 11:00N 49°28' E 000°09'1 2.5
2018-Jun-17 10:30N 49°28' E 000°07'714.2
2018-Jun-17 10:00N 49°31' W 000°03'713.6
2018-Jun-17 09:31N 49°33' W 000°13'611.5
2018-Jun-17 09:00N 49°35' W 000°21'612.6
2018-Jun-17 08:30N 49°37' W 000°30'713.2
2018-Jun-17 08:00N 49°40' W 000°40'713.2
2018-Jun-17 07:30N 49°42' W 000°49'713.2
2018-Jun-17 07:00N 49°44' W 000°59'816.1
2018-Jun-17 06:30N 49°47' W 001°11'1214.4
2018-Jun-17 05:40N 49°50' W 001°28'313.9
2018-Jun-17 05:29N 49°50' W 001°33'713.8
2018-Jun-17 04:59N 49°51' W 001°43'713.0
2018-Jun-17 04:29N 49°51' W 001°53'612.5
2018-Jun-17 03:58N 49°51' W 002°03'813.0
2018-Jun-17 03:23N 49°52' W 002°15'613.7
2018-Jun-17 02:55N 49°52' W 002°25'914.2
2018-Jun-17 02:18N 49°50' W 002°38'514.5
2018-Jun-17 01:59N 49°48' W 002°45'1014.7
2018-Jun-17 01:20N 49°45' W 002°59'614.1
2018-Jun-17 00:56N 49°42' W 003°06'714.1
2018-Jun-17 00:24N 49°38' W 003°16'614.3
2018-Jun-17 00:00N 49°35' W 003°24'914.4
2018-Jun-16 23:21N 49°31' W 003°36'3913.6
2018-Jun-16 20:30N 49°10' W 004°26'713.9
2018-Jun-16 20:00N 49°06' W 004°36'714.1
2018-Jun-16 19:30N 49°03' W 004°45'914.1
2018-Jun-16 18:52N 48°59' W 004°57'514.3
2018-Jun-16 18:29N 48°57' W 005°05'914.5
2018-Jun-16 17:52N 48°52' W 005°17'614.7
2018-Jun-16 17:28N 48°49' W 005°25'3911.7
2018-Jun-16 14:07N 48°10' W 005°22'114.5
2018-Jun-16 14:01N 48°09' W 005°21'714.2
2018-Jun-16 13:30N 48°03' W 005°15'813.2
2018-Jun-16 12:55N 47°57' W 005°07'614.4
2018-Jun-16 12:31N 47°54' W 004°60'815.1
2018-Jun-16 12:01N 47°50' W 004°50'3414.3
2018-Jun-16 09:37N 47°31' W 004°08'314.4
2018-Jun-16 09:23N 47°29' W 004°04'614.4
2018-Jun-16 08:59N 47°26' W 003°57'714.6
2018-Jun-16 08:31N 47°22' W 003°48'714.6
2018-Jun-16 08:00N 47°19' W 003°39'714.3
2018-Jun-16 07:31N 47°15' W 003°30'714.3
2018-Jun-16 07:01N 47°11' W 003°21'713.8
2018-Jun-16 06:30N 47°09' W 003°11'714.0
2018-Jun-16 06:01N 47°06' W 003°02'714.1
2018-Jun-16 05:29N 47°04' W 002°52'714.0
2018-Jun-16 05:00N 47°01' W 002°42'613.3
2018-Jun-16 04:30N 47°03' W 002°33'612.9
2018-Jun-16 04:00N 47°06' W 002°25'611.5
2018-Jun-16 03:31N 47°10' W 002°19'612.4
2018-Jun-16 03:01N 47°15' W 002°14'4 8.8
2018-Jun-16 02:31N 47°18' W 002°09'0 0.7
2018-Jun-16 02:00N 47°18' W 002°09'0 0.0
2018-Jun-16 01:30N 47°18' W 002°09'0 0.0
2018-Jun-16 01:00N 47°18' W 002°09'0 0.0
2018-Jun-16 00:30N 47°18' W 002°09'0 0.0
2018-Jun-16 00:00N 47°18' W 002°09'0 0.0
2018-Jun-15 23:30N 47°18' W 002°09'0 0.0
2018-Jun-15 23:00N 47°18' W 002°09'0 0.0
2018-Jun-15 22:30N 47°18' W 002°09'0 0.0
2018-Jun-15 22:00N 47°18' W 002°09'0 0.0
2018-Jun-15 21:30N 47°18' W 002°09'0 0.0
2018-Jun-15 21:00N 47°18' W 002°09'0 0.0
2018-Jun-15 20:30N 47°18' W 002°09'0 0.0
2018-Jun-15 20:00N 47°18' W 002°09'0 0.0
2018-Jun-15 19:30N 47°18' W 002°09'0 0.0
2018-Jun-15 19:00N 47°18' W 002°09'0 0.0
2018-Jun-15 18:30N 47°18' W 002°09'0 0.1
2018-Jun-15 18:00N 47°18' W 002°09'5 9.7
2018-Jun-15 17:29N 47°14' W 002°15'713.6
2018-Jun-15 17:00N 47°09' W 002°20'3710.3
2018-Jun-15 13:24N 46°31' W 002°22'514.1
2018-Jun-15 13:01N 46°27' W 002°17'714.1
2018-Jun-15 12:31N 46°22' W 002°11'714.5
2018-Jun-15 12:00N 46°16' W 002°05'714.5
2018-Jun-15 11:31N 46°10' W 001°58'714.7
2018-Jun-15 11:00N 46°04' W 001°52'714.8
2018-Jun-15 10:31N 45°58' W 001°46'714.6
2018-Jun-15 10:01N 45°52' W 001°41'1615.0
2018-Jun-15 08:56N 45°39' W 001°27'512.0
2018-Jun-15 08:30N 45°37' W 001°20'816.5
2018-Jun-15 08:00N 45°39' W 001°08'815.3
2018-Jun-15 07:30N 45°33' W 001°01'917.2
2018-Jun-15 07:00N 45°26' W 000°53'714.9
2018-Jun-15 06:30N 45°20' W 000°47'19 0.4
2018-Jun-13 05:12N 45°02' W 000°37'617.2
2018-Jun-13 04:49N 45°08' W 000°42'817.0
2018-Jun-13 04:21N 45°15' W 000°45'616.8
2018-Jun-13 04:00N 45°21' W 000°48'816.8
2018-Jun-13 03:30N 45°28' W 000°55'917.8
2018-Jun-13 03:00N 45°35' W 001°03'815.5
2018-Jun-13 02:30N 45°39' W 001°11'917.6
2018-Jun-13 01:59N 45°36' W 001°23'3418.1
2018-Jun-13 00:05N 46°01' W 001°57'4317.9
2018-Jun-12 21:39N 46°31' W 002°43'517.5
2018-Jun-12 21:22N 46°34' W 002°49'917.4
2018-Jun-12 20:50N 46°39' W 003°00'817.4
2018-Jun-12 20:24N 46°44' W 003°09'717.4
2018-Jun-12 20:01N 46°48' W 003°16'1217.5
2018-Jun-12 19:18N 46°56' W 003°31'2317.7
2018-Jun-12 18:00N 47°11' W 003°56'4417.3
2018-Jun-12 15:27N 47°40' W 004°45'818.3
2018-Jun-12 15:00N 47°46' W 004°54'12411.2
2018-Jun-12 03:52N 49°41' W 003°42'616.5
2018-Jun-12 03:30N 49°44' W 003°34'816.9
2018-Jun-12 03:00N 49°48' W 003°23'917.6
2018-Jun-12 02:30N 49°52' W 003°11'918.2
2018-Jun-12 02:00N 49°56' W 002°58'918.6
2018-Jun-12 01:30N 49°60' W 002°45'1019.4
2018-Jun-12 01:00N 50°02' W 002°30'1019.4
2018-Jun-12 00:30N 50°01' W 002°15'1020.1
2018-Jun-12 00:00N 49°58' W 002°00'1020.9
2018-Jun-11 23:30N 49°55' W 001°44'1020.9
2018-Jun-11 23:00N 49°52' W 001°29'1020.7
2018-Jun-11 22:30N 49°49' W 001°13'1019.4
2018-Jun-11 22:00N 49°46' W 000°59'918.1
2018-Jun-11 21:30N 49°41' W 000°47'917.6
2018-Jun-11 21:00N 49°38' W 000°35'917.0
2018-Jun-11 20:30N 49°35' W 000°22'816.6
2018-Jun-11 20:01N 49°32' W 000°10'714.4
2018-Jun-11 19:30N 49°30' E 000°00'713.1
2018-Jun-11 19:00N 49°27' E 000°10'0 0.4
2018-Jun-11 18:30N 49°27' E 000°10'0 0.0
2018-Jun-11 18:00N 49°27' E 000°10'0 0.0
2018-Jun-11 17:30N 49°27' E 000°10'0 0.0
2018-Jun-11 17:00N 49°27' E 000°10'0 0.0
2018-Jun-11 16:30N 49°27' E 000°10'0 0.0
2018-Jun-11 16:00N 49°27' E 000°10'0 0.0
2018-Jun-11 15:30N 49°27' E 000°10'0 0.0
2018-Jun-11 15:00N 49°27' E 000°10'0 0.0
2018-Jun-11 14:30N 49°27' E 000°10'0 0.0
2018-Jun-11 14:00N 49°27' E 000°10'0 0.0
2018-Jun-11 13:30N 49°27' E 000°10'0 0.0
2018-Jun-11 13:00N 49°27' E 000°10'0 0.0
2018-Jun-11 12:30N 49°27' E 000°10'0 0.0
2018-Jun-11 12:00N 49°27' E 000°10'0 0.0
2018-Jun-11 11:30N 49°27' E 000°10'0 0.0
2018-Jun-11 11:00N 49°27' E 000°10'0 0.0
2018-Jun-11 10:30N 49°27' E 000°10'0 0.0
2018-Jun-11 10:00N 49°27' E 000°10'0 0.0
2018-Jun-11 09:30N 49°27' E 000°10'0 0.0
2018-Jun-11 09:00N 49°27' E 000°10'0 0.0
2018-Jun-11 08:30N 49°27' E 000°10'0 0.0
2018-Jun-11 08:00N 49°27' E 000°10'0 0.0
2018-Jun-11 07:30N 49°27' E 000°10'0 0.0
2018-Jun-11 07:00N 49°27' E 000°10'0 0.0
2018-Jun-11 06:30N 49°27' E 000°10'0 0.0
2018-Jun-11 06:00N 49°27' E 000°10'0 0.0
2018-Jun-11 05:30N 49°27' E 000°10'0 0.0
2018-Jun-11 05:00N 49°27' E 000°10'4 7.0
2018-Jun-11 04:31N 49°29' E 000°05'3 5.6
2018-Jun-11 04:01N 49°28' E 000°09'0 0.0
2018-Jun-11 03:29N 49°28' E 000°09'0 0.0
2018-Jun-11 02:59N 49°28' E 000°09'0 0.0
2018-Jun-11 02:29N 49°28' E 000°09'0 0.0
2018-Jun-11 01:59N 49°28' E 000°09'0 0.0
2018-Jun-11 01:29N 49°28' E 000°09'0 0.0
2018-Jun-11 00:59N 49°28' E 000°09'0 0.0
2018-Jun-11 00:29N 49°28' E 000°09'0 0.0
2018-Jun-10 23:59N 49°28' E 000°09'0 0.0
2018-Jun-10 23:29N 49°28' E 000°09'0 0.0
2018-Jun-10 22:59N 49°28' E 000°09'0 0.0
2018-Jun-10 22:29N 49°28' E 000°09'0 0.0
2018-Jun-10 21:59N 49°28' E 000°09'1 2.5
2018-Jun-10 21:30N 49°28' E 000°07'714.2
2018-Jun-10 21:00N 49°30' W 000°03'714.9
2018-Jun-10 20:30N 49°33' W 000°14'816.2
2018-Jun-10 20:00N 49°36' W 000°26'816.7
2018-Jun-10 19:30N 49°39' W 000°38'917.3
2018-Jun-10 19:00N 49°42' W 000°50'917.8
2018-Jun-10 18:30N 49°45' W 001°03'1019.5
2018-Jun-10 18:00N 49°48' W 001°17'1019.4
2018-Jun-10 17:30N 49°50' W 001°32'1020.2
2018-Jun-10 17:01N 49°51' W 001°47'1020.3
2018-Jun-10 16:30N 49°52' W 002°03'2218.4
2018-Jun-10 15:17N 49°51' W 002°38'517.9
2018-Jun-10 15:00N 49°50' W 002°46'10216.4
2018-Jun-10 08:49N 49°01' W 005°02'  

Dump ship's entire track history